PAJN/JNU METAR and TAF weather

Enter ICAO airport designator
Station Type Date Time Source
PAJN METAR 2019/10/15 03:53 UTC NOAA

PAJN 150353Z 13013KT 10SM BKN050 OVC070 06/M01 A2961 RMK SLP028 T00561006 $ VIA AUTODIAL


Station Type Date Time Source
PAJN Decoded METAR 2019/10/15 03:53 UTC NOAA

JUNEAU INTERNATIONAL AIRPORT, AK, United States (PAJN) 58-21N 134-34W 8M
Oct 14, 2019 - 11:53 PM EDT / 2019.10.15 0353 UTC
Wind: from the SE (130 degrees) at 15 MPH (13 KT):0
Visibility: 10 mile(s):0
Sky conditions: overcast
Temperature: 42.1 F (5.6 C)
Dew Point: 30.9 F (-0.6 C)
Relative Humidity: 64%
Pressure (altimeter): 29.61 in. Hg (1002 hPa)
ob: PAJN 150353Z 13013KT 10SM BKN050 OVC070 06/M01 A2961 RMK SLP028 T00561006 VIA AUTODIAL
cycle: 4

Station Type Date Time Source
PAJN TAF 2019/10/14 18:27 UTC NOAA

TAF PAJN 141724Z 1418/1518 VRB03KT P6SM BCFG FEW001
FM150000 08011KT P6SM BKN050 OVC070 WS020/07030KT
FM150400 10011KT P6SM -RA SCT015 BKN030 OVC050 WS020/07040KT
FM150900 08012KT 5SM -RA BR BKN025 OVC040 WS020/07035KT

Example: see airport list